sensor_id;sensor_type;location;lat;lon;timestamp;temperature;humidity
1021;DHT22;499;42.648;23.270;2022-12-18T00:01:58;7.50;96.10
1021;DHT22;499;42.648;23.270;2022-12-18T00:04:26;7.40;96.00
1021;DHT22;499;42.648;23.270;2022-12-18T00:06:53;7.20;95.70
1021;DHT22;499;42.648;23.270;2022-12-18T00:09:21;7.10;97.10
1021;DHT22;499;42.648;23.270;2022-12-18T00:11:48;7.00;98.40
1021;DHT22;499;42.648;23.270;2022-12-18T00:14:15;7.00;98.70
1021;DHT22;499;42.648;23.270;2022-12-18T00:16:45;7.10;99.80
1021;DHT22;499;42.648;23.270;2022-12-18T00:19:13;7.00;98.10
1021;DHT22;499;42.648;23.270;2022-12-18T00:21:42;6.80;98.80
1021;DHT22;499;42.648;23.270;2022-12-18T00:24:10;6.70;99.00
1021;DHT22;499;42.648;23.270;2022-12-18T00:26:38;6.70;99.90
1021;DHT22;499;42.648;23.270;2022-12-18T00:29:09;6.60;99.90
1021;DHT22;499;42.648;23.270;2022-12-18T00:31:37;6.60;99.90
1021;DHT22;499;42.648;23.270;2022-12-18T00:34:06;6.60;99.90
1021;DHT22;499;42.648;23.270;2022-12-18T00:36:34;6.60;99.90
1021;DHT22;499;42.648;23.270;2022-12-18T00:39:03;6.30;99.90
1021;DHT22;499;42.648;23.270;2022-12-18T00:41:31;6.30;99.90
1021;DHT22;499;42.648;23.270;2022-12-18T00:44:17;6.30;99.90
1021;DHT22;499;42.648;23.270;2022-12-18T00:46:45;6.30;99.90
1021;DHT22;499;42.648;23.270;2022-12-18T00:49:14;6.50;99.90
1021;DHT22;499;42.648;23.270;2022-12-18T00:51:41;6.30;99.90
1021;DHT22;499;42.648;23.270;2022-12-18T00:54:08;6.40;99.90
1021;DHT22;499;42.648;23.270;2022-12-18T00:56:37;6.50;99.90
1021;DHT22;499;42.648;23.270;2022-12-18T00:59:05;6.50;98.50
1021;DHT22;499;42.648;23.270;2022-12-18T01:01:32;6.40;98.50
1021;DHT22;499;42.648;23.270;2022-12-18T01:04:00;6.40;99.10
1021;DHT22;499;42.648;23.270;2022-12-18T01:06:29;6.40;98.60
1021;DHT22;499;42.648;23.270;2022-12-18T01:08:56;6.30;98.80
1021;DHT22;499;42.648;23.270;2022-12-18T01:11:24;6.10;99.40
1021;DHT22;499;42.648;23.270;2022-12-18T01:13:52;6.00;99.90
1021;DHT22;499;42.648;23.270;2022-12-18T01:16:19;5.90;99.90
1021;DHT22;499;42.648;23.270;2022-12-18T01:18:46;5.80;99.90
1021;DHT22;499;42.648;23.270;2022-12-18T01:21:15;5.80;99.90
1021;DHT22;499;42.648;23.270;2022-12-18T01:23:44;5.70;99.70
1021;DHT22;499;42.648;23.270;2022-12-18T01:26:13;5.60;99.90
1021;DHT22;499;42.648;23.270;2022-12-18T01:28:40;5.40;99.90
1021;DHT22;499;42.648;23.270;2022-12-18T01:31:16;5.40;99.90
1021;DHT22;499;42.648;23.270;2022-12-18T01:33:44;5.30;99.90
1021;DHT22;499;42.648;23.270;2022-12-18T01:36:16;5.30;99.90
1021;DHT22;499;42.648;23.270;2022-12-18T01:38:45;5.30;99.90
1021;DHT22;499;42.648;23.270;2022-12-18T01:41:13;5.30;99.90
1021;DHT22;499;42.648;23.270;2022-12-18T01:43:43;5.20;99.90
1021;DHT22;499;42.648;23.270;2022-12-18T01:46:10;5.20;99.90
1021;DHT22;499;42.648;23.270;2022-12-18T01:48:39;5.20;99.90
1021;DHT22;499;42.648;23.270;2022-12-18T01:51:08;5.20;99.90
1021;DHT22;499;42.648;23.270;2022-12-18T01:53:37;5.20;99.90
1021;DHT22;499;42.648;23.270;2022-12-18T01:56:08;5.20;99.90
1021;DHT22;499;42.648;23.270;2022-12-18T01:58:41;5.30;99.90
1021;DHT22;499;42.648;23.270;2022-12-18T02:01:10;5.20;99.90
1021;DHT22;499;42.648;23.270;2022-12-18T02:03:40;5.10;99.90
1021;DHT22;499;42.648;23.270;2022-12-18T02:06:12;5.10;99.90
1021;DHT22;499;42.648;23.270;2022-12-18T02:08:47;5.20;99.90
1021;DHT22;499;42.648;23.270;2022-12-18T02:11:22;5.20;99.90
1021;DHT22;499;42.648;23.270;2022-12-18T02:13:57;5.20;99.90
1021;DHT22;499;42.648;23.270;2022-12-18T02:16:32;5.20;99.90
1021;DHT22;499;42.648;23.270;2022-12-18T02:19:06;5.30;99.90
1021;DHT22;499;42.648;23.270;2022-12-18T02:21:43;5.40;99.90
1021;DHT22;499;42.648;23.270;2022-12-18T02:24:22;5.30;99.90
1021;DHT22;499;42.648;23.270;2022-12-18T02:26:56;5.30;99.90
1021;DHT22;499;42.648;23.270;2022-12-18T02:29:26;5.20;99.10
1021;DHT22;499;42.648;23.270;2022-12-18T02:32:00;5.20;98.40
1021;DHT22;499;42.648;23.270;2022-12-18T02:34:31;5.10;99.40
1021;DHT22;499;42.648;23.270;2022-12-18T02:37:02;5.10;99.90
1021;DHT22;499;42.648;23.270;2022-12-18T02:39:31;5.10;99.90
1021;DHT22;499;42.648;23.270;2022-12-18T02:42:01;5.10;99.90
1021;DHT22;499;42.648;23.270;2022-12-18T02:44:33;5.20;99.90
1021;DHT22;499;42.648;23.270;2022-12-18T02:47:01;5.10;99.10
1021;DHT22;499;42.648;23.270;2022-12-18T02:49:36;5.10;98.90
1021;DHT22;499;42.648;23.270;2022-12-18T02:52:14;5.00;99.20
1021;DHT22;499;42.648;23.270;2022-12-18T02:54:55;4.90;98.50
1021;DHT22;499;42.648;23.270;2022-12-18T02:57:34;5.00;99.20
1021;DHT22;499;42.648;23.270;2022-12-18T03:00:08;5.00;98.60
1021;DHT22;499;42.648;23.270;2022-12-18T03:02:40;5.00;98.80
1021;DHT22;499;42.648;23.270;2022-12-18T03:05:15;5.00;98.70
1021;DHT22;499;42.648;23.270;2022-12-18T03:07:47;4.90;98.50
1021;DHT22;499;42.648;23.270;2022-12-18T03:10:32;4.90;99.90
1021;DHT22;499;42.648;23.270;2022-12-18T03:13:06;4.90;99.90
1021;DHT22;499;42.648;23.270;2022-12-18T03:15:35;4.80;99.90
1021;DHT22;499;42.648;23.270;2022-12-18T03:18:07;4.70;99.90
1021;DHT22;499;42.648;23.270;2022-12-18T03:20:37;4.70;99.90
1021;DHT22;499;42.648;23.270;2022-12-18T03:23:09;4.30;99.90
1021;DHT22;499;42.648;23.270;2022-12-18T03:25:40;4.70;99.90
1021;DHT22;499;42.648;23.270;2022-12-18T03:28:12;4.60;99.90
1021;DHT22;499;42.648;23.270;2022-12-18T03:30:41;4.60;99.90
1021;DHT22;499;42.648;23.270;2022-12-18T03:33:13;4.70;99.90
1021;DHT22;499;42.648;23.270;2022-12-18T03:35:43;4.80;99.40
1021;DHT22;499;42.648;23.270;2022-12-18T03:38:11;4.80;96.20
1021;DHT22;499;42.648;23.270;2022-12-18T03:40:45;4.90;95.60
1021;DHT22;499;42.648;23.270;2022-12-18T03:43:25;4.90;92.90
1021;DHT22;499;42.648;23.270;2022-12-18T03:46:02;4.90;91.20
1021;DHT22;499;42.648;23.270;2022-12-18T03:48:33;5.00;91.10
1021;DHT22;499;42.648;23.270;2022-12-18T03:51:07;5.10;91.10
1021;DHT22;499;42.648;23.270;2022-12-18T03:53:40;5.00;90.70
1021;DHT22;499;42.648;23.270;2022-12-18T03:56:09;5.00;88.00
1021;DHT22;499;42.648;23.270;2022-12-18T03:58:40;5.00;91.10
1021;DHT22;499;42.648;23.270;2022-12-18T04:01:09;4.90;85.60
1021;DHT22;499;42.648;23.270;2022-12-18T04:03:38;4.90;86.00
1021;DHT22;499;42.648;23.270;2022-12-18T04:06:06;4.80;84.60
1021;DHT22;499;42.648;23.270;2022-12-18T04:08:34;4.80;87.40
1021;DHT22;499;42.648;23.270;2022-12-18T04:11:02;4.80;87.30
1021;DHT22;499;42.648;23.270;2022-12-18T04:13:33;4.80;87.80
1021;DHT22;499;42.648;23.270;2022-12-18T04:16:02;4.80;89.40
1021;DHT22;499;42.648;23.270;2022-12-18T04:18:30;4.90;84.60
1021;DHT22;499;42.648;23.270;2022-12-18T04:20:57;4.90;85.50
1021;DHT22;499;42.648;23.270;2022-12-18T04:23:24;4.90;83.40
1021;DHT22;499;42.648;23.270;2022-12-18T04:25:51;4.60;78.50
1021;DHT22;499;42.648;23.270;2022-12-18T04:28:18;4.60;83.20
1021;DHT22;499;42.648;23.270;2022-12-18T04:30:45;4.70;83.20
1021;DHT22;499;42.648;23.270;2022-12-18T04:33:21;4.70;84.20
1021;DHT22;499;42.648;23.270;2022-12-18T04:35:48;4.70;84.40
1021;DHT22;499;42.648;23.270;2022-12-18T04:38:15;4.70;83.20
1021;DHT22;499;42.648;23.270;2022-12-18T04:40:42;4.70;79.90
1021;DHT22;499;42.648;23.270;2022-12-18T04:43:09;4.70;77.80
1021;DHT22;499;42.648;23.270;2022-12-18T04:45:37;4.70;77.90
1021;DHT22;499;42.648;23.270;2022-12-18T04:48:05;4.60;77.80
1021;DHT22;499;42.648;23.270;2022-12-18T04:50:33;4.40;79.80
1021;DHT22;499;42.648;23.270;2022-12-18T04:53:00;4.30;75.40
1021;DHT22;499;42.648;23.270;2022-12-18T04:55:27;4.30;77.20
1021;DHT22;499;42.648;23.270;2022-12-18T04:57:55;4.40;78.30
1021;DHT22;499;42.648;23.270;2022-12-18T05:00:22;4.40;78.20
1021;DHT22;499;42.648;23.270;2022-12-18T05:02:49;4.30;76.60
1021;DHT22;499;42.648;23.270;2022-12-18T05:05:16;4.30;79.50
1021;DHT22;499;42.648;23.270;2022-12-18T05:07:44;4.30;74.00
1021;DHT22;499;42.648;23.270;2022-12-18T05:10:12;4.30;76.90
1021;DHT22;499;42.648;23.270;2022-12-18T05:12:39;4.30;76.90
1021;DHT22;499;42.648;23.270;2022-12-18T05:15:24;4.40;73.70
1021;DHT22;499;42.648;23.270;2022-12-18T05:17:51;4.40;73.70
1021;DHT22;499;42.648;23.270;2022-12-18T05:20:18;4.40;73.00
1021;DHT22;499;42.648;23.270;2022-12-18T05:22:47;4.40;73.70
1021;DHT22;499;42.648;23.270;2022-12-18T05:25:14;4.30;75.10
1021;DHT22;499;42.648;23.270;2022-12-18T05:27:41;4.30;73.70
1021;DHT22;499;42.648;23.270;2022-12-18T05:30:09;4.30;70.30
1021;DHT22;499;42.648;23.270;2022-12-18T05:32:36;4.40;68.50
1021;DHT22;499;42.648;23.270;2022-12-18T05:35:05;4.50;70.50
1021;DHT22;499;42.648;23.270;2022-12-18T05:37:33;4.40;70.20
1021;DHT22;499;42.648;23.270;2022-12-18T05:40:01;4.40;66.60
1021;DHT22;499;42.648;23.270;2022-12-18T05:42:29;4.40;66.90
1021;DHT22;499;42.648;23.270;2022-12-18T05:44:56;4.40;69.40
1021;DHT22;499;42.648;23.270;2022-12-18T05:47:23;4.50;69.00
1021;DHT22;499;42.648;23.270;2022-12-18T05:49:50;4.50;67.30
1021;DHT22;499;42.648;23.270;2022-12-18T05:52:17;4.60;66.80
1021;DHT22;499;42.648;23.270;2022-12-18T05:54:44;4.60;65.60
1021;DHT22;499;42.648;23.270;2022-12-18T05:57:13;4.50;64.30
1021;DHT22;499;42.648;23.270;2022-12-18T05:59:40;4.50;64.30
1021;DHT22;499;42.648;23.270;2022-12-18T06:02:07;4.50;64.30
1021;DHT22;499;42.648;23.270;2022-12-18T06:04:34;4.40;64.20
1021;DHT22;499;42.648;23.270;2022-12-18T06:07:01;4.30;64.80
1021;DHT22;499;42.648;23.270;2022-12-18T06:09:29;4.20;64.00
1021;DHT22;499;42.648;23.270;2022-12-18T06:11:56;4.30;66.80
1021;DHT22;499;42.648;23.270;2022-12-18T06:14:24;4.20;66.60
1021;DHT22;499;42.648;23.270;2022-12-18T06:16:51;4.20;68.40
1021;DHT22;499;42.648;23.270;2022-12-18T06:19:19;4.10;67.20
1021;DHT22;499;42.648;23.270;2022-12-18T06:21:46;4.10;66.60
1021;DHT22;499;42.648;23.270;2022-12-18T06:24:14;4.00;68.60
1021;DHT22;499;42.648;23.270;2022-12-18T06:26:42;3.90;67.60
1021;DHT22;499;42.648;23.270;2022-12-18T06:29:09;4.00;64.90
1021;DHT22;499;42.648;23.270;2022-12-18T06:31:37;4.00;61.10
1021;DHT22;499;42.648;23.270;2022-12-18T06:34:04;4.10;61.20
1021;DHT22;499;42.648;23.270;2022-12-18T06:36:32;4.10;61.50
1021;DHT22;499;42.648;23.270;2022-12-18T06:38:59;4.30;58.60
1021;DHT22;499;42.648;23.270;2022-12-18T06:41:26;4.30;58.70
1021;DHT22;499;42.648;23.270;2022-12-18T06:43:53;4.30;60.30
1021;DHT22;499;42.648;23.270;2022-12-18T06:46:20;4.20;59.20
1021;DHT22;499;42.648;23.270;2022-12-18T06:48:50;4.40;56.80
1021;DHT22;499;42.648;23.270;2022-12-18T06:51:18;4.40;55.80
1021;DHT22;499;42.648;23.270;2022-12-18T06:53:46;4.30;55.00
1021;DHT22;499;42.648;23.270;2022-12-18T06:56:14;4.40;55.10
1021;DHT22;499;42.648;23.270;2022-12-18T06:58:41;4.30;55.80
1021;DHT22;499;42.648;23.270;2022-12-18T07:01:10;4.30;55.90
1021;DHT22;499;42.648;23.270;2022-12-18T07:03:37;4.40;56.50
1021;DHT22;499;42.648;23.270;2022-12-18T07:06:13;4.50;55.10
1021;DHT22;499;42.648;23.270;2022-12-18T07:08:41;4.50;52.90
1021;DHT22;499;42.648;23.270;2022-12-18T07:11:08;4.40;51.30
1021;DHT22;499;42.648;23.270;2022-12-18T07:13:35;4.40;52.20
1021;DHT22;499;42.648;23.270;2022-12-18T07:16:06;4.50;50.70
1021;DHT22;499;42.648;23.270;2022-12-18T07:18:34;4.30;49.90
1021;DHT22;499;42.648;23.270;2022-12-18T07:21:06;4.30;50.80
1021;DHT22;499;42.648;23.270;2022-12-18T07:23:34;4.20;50.20
1021;DHT22;499;42.648;23.270;2022-12-18T07:26:02;4.30;49.00
1021;DHT22;499;42.648;23.270;2022-12-18T07:28:30;4.30;48.90
1021;DHT22;499;42.648;23.270;2022-12-18T07:30:58;4.30;49.90
1021;DHT22;499;42.648;23.270;2022-12-18T07:33:25;4.30;50.50
1021;DHT22;499;42.648;23.270;2022-12-18T07:35:52;4.30;49.10
1021;DHT22;499;42.648;23.270;2022-12-18T07:38:22;4.20;48.10
1021;DHT22;499;42.648;23.270;2022-12-18T07:40:49;4.30;49.60
1021;DHT22;499;42.648;23.270;2022-12-18T07:43:16;4.30;49.10
1021;DHT22;499;42.648;23.270;2022-12-18T07:45:43;4.50;48.40
1021;DHT22;499;42.648;23.270;2022-12-18T07:48:10;4.50;49.10
1021;DHT22;499;42.648;23.270;2022-12-18T07:50:38;4.50;49.30
1021;DHT22;499;42.648;23.270;2022-12-18T07:53:05;4.50;46.20
1021;DHT22;499;42.648;23.270;2022-12-18T07:55:33;4.30;47.50
1021;DHT22;499;42.648;23.270;2022-12-18T07:58:02;4.40;47.50
1021;DHT22;499;42.648;23.270;2022-12-18T08:00:29;4.40;46.20
1021;DHT22;499;42.648;23.270;2022-12-18T08:02:57;4.50;47.50
1021;DHT22;499;42.648;23.270;2022-12-18T08:05:24;4.60;46.20
1021;DHT22;499;42.648;23.270;2022-12-18T08:07:51;4.50;45.20
1021;DHT22;499;42.648;23.270;2022-12-18T08:10:19;4.50;46.20
1021;DHT22;499;42.648;23.270;2022-12-18T08:12:50;4.50;46.20
1021;DHT22;499;42.648;23.270;2022-12-18T08:15:18;4.50;46.20
1021;DHT22;499;42.648;23.270;2022-12-18T08:17:45;4.50;47.30
1021;DHT22;499;42.648;23.270;2022-12-18T08:20:12;4.40;47.10
1021;DHT22;499;42.648;23.270;2022-12-18T08:22:41;4.30;47.80
1021;DHT22;499;42.648;23.270;2022-12-18T08:25:08;4.40;49.00
1021;DHT22;499;42.648;23.270;2022-12-18T08:27:35;4.40;48.70
1021;DHT22;499;42.648;23.270;2022-12-18T08:30:05;4.50;46.20
1021;DHT22;499;42.648;23.270;2022-12-18T08:32:32;4.40;46.10
1021;DHT22;499;42.648;23.270;2022-12-18T08:34:59;4.40;46.20
1021;DHT22;499;42.648;23.270;2022-12-18T08:37:26;4.50;46.20
1021;DHT22;499;42.648;23.270;2022-12-18T08:39:54;4.60;46.60
1021;DHT22;499;42.648;23.270;2022-12-18T08:42:21;4.60;48.20
1021;DHT22;499;42.648;23.270;2022-12-18T08:45:08;4.60;47.50
1021;DHT22;499;42.648;23.270;2022-12-18T08:47:35;4.80;47.30
1021;DHT22;499;42.648;23.270;2022-12-18T08:50:03;4.60;49.30
1021;DHT22;499;42.648;23.270;2022-12-18T08:52:31;4.50;50.90
1021;DHT22;499;42.648;23.270;2022-12-18T08:54:59;4.70;52.70
1021;DHT22;499;42.648;23.270;2022-12-18T08:57:26;4.30;55.00
1021;DHT22;499;42.648;23.270;2022-12-18T08:59:53;4.30;55.00
1021;DHT22;499;42.648;23.270;2022-12-18T09:02:22;4.40;56.30
1021;DHT22;499;42.648;23.270;2022-12-18T09:04:49;4.50;57.10
1021;DHT22;499;42.648;23.270;2022-12-18T09:07:16;4.50;55.20
1021;DHT22;499;42.648;23.270;2022-12-18T09:09:43;4.40;55.90
1021;DHT22;499;42.648;23.270;2022-12-18T09:12:10;4.50;57.00
1021;DHT22;499;42.648;23.270;2022-12-18T09:14:37;4.40;54.50
1021;DHT22;499;42.648;23.270;2022-12-18T09:17:05;4.30;55.00
1021;DHT22;499;42.648;23.270;2022-12-18T09:19:33;4.10;55.50
1021;DHT22;499;42.648;23.270;2022-12-18T09:22:00;3.90;56.30
1021;DHT22;499;42.648;23.270;2022-12-18T09:24:27;3.70;59.60
1021;DHT22;499;42.648;23.270;2022-12-18T09:26:55;3.70;62.30
1021;DHT22;499;42.648;23.270;2022-12-18T09:29:22;3.70;61.60
1021;DHT22;499;42.648;23.270;2022-12-18T09:31:49;3.60;64.80
1021;DHT22;499;42.648;23.270;2022-12-18T09:34:16;3.60;65.70
1021;DHT22;499;42.648;23.270;2022-12-18T09:36:45;3.60;65.20
1021;DHT22;499;42.648;23.270;2022-12-18T09:39:12;3.70;63.60
1021;DHT22;499;42.648;23.270;2022-12-18T09:41:43;3.70;63.60
1021;DHT22;499;42.648;23.270;2022-12-18T09:44:18;3.60;63.40
1021;DHT22;499;42.648;23.270;2022-12-18T09:46:50;3.60;64.90
1021;DHT22;499;42.648;23.270;2022-12-18T09:49:23;3.70;65.60
1021;DHT22;499;42.648;23.270;2022-12-18T09:51:56;3.80;64.10
1021;DHT22;499;42.648;23.270;2022-12-18T09:54:31;3.80;63.20
1021;DHT22;499;42.648;23.270;2022-12-18T09:56:59;3.80;63.60
1021;DHT22;499;42.648;23.270;2022-12-18T09:59:32;3.90;63.70
1021;DHT22;499;42.648;23.270;2022-12-18T10:02:02;4.10;61.50
1021;DHT22;499;42.648;23.270;2022-12-18T10:04:38;4.20;58.10
1021;DHT22;499;42.648;23.270;2022-12-18T10:07:13;4.40;58.60
1021;DHT22;499;42.648;23.270;2022-12-18T10:09:50;4.40;59.30
1021;DHT22;499;42.648;23.270;2022-12-18T10:12:23;4.40;52.70
1021;DHT22;499;42.648;23.270;2022-12-18T10:14:58;4.50;52.20
1021;DHT22;499;42.648;23.270;2022-12-18T10:17:35;4.50;48.80
1021;DHT22;499;42.648;23.270;2022-12-18T10:20:12;4.50;46.80
1021;DHT22;499;42.648;23.270;2022-12-18T10:22:59;4.40;46.70
1021;DHT22;499;42.648;23.270;2022-12-18T10:25:33;4.40;46.20
1021;DHT22;499;42.648;23.270;2022-12-18T10:28:09;4.60;47.20
1021;DHT22;499;42.648;23.270;2022-12-18T10:30:38;4.60;46.20
1021;DHT22;499;42.648;23.270;2022-12-18T10:33:08;4.50;44.90
1021;DHT22;499;42.648;23.270;2022-12-18T10:35:41;4.30;46.00
1021;DHT22;499;42.648;23.270;2022-12-18T10:38:23;4.20;46.90
1021;DHT22;499;42.648;23.270;2022-12-18T10:40:53;4.00;48.00
1021;DHT22;499;42.648;23.270;2022-12-18T10:43:24;4.00;47.60
1021;DHT22;499;42.648;23.270;2022-12-18T10:46:04;4.00;47.30
1021;DHT22;499;42.648;23.270;2022-12-18T10:48:34;3.80;47.60
1021;DHT22;499;42.648;23.270;2022-12-18T10:51:02;3.70;47.30
1021;DHT22;499;42.648;23.270;2022-12-18T10:53:33;3.70;49.00
1021;DHT22;499;42.648;23.270;2022-12-18T10:56:03;3.80;49.20
1021;DHT22;499;42.648;23.270;2022-12-18T10:58:33;4.00;47.90
1021;DHT22;499;42.648;23.270;2022-12-18T11:01:09;4.10;45.90
1021;DHT22;499;42.648;23.270;2022-12-18T11:03:39;4.00;45.80
1021;DHT22;499;42.648;23.270;2022-12-18T11:06:08;4.10;44.60
1021;DHT22;499;42.648;23.270;2022-12-18T11:08:39;4.20;45.90
1021;DHT22;499;42.648;23.270;2022-12-18T11:11:16;4.20;43.20
1021;DHT22;499;42.648;23.270;2022-12-18T11:13:55;4.30;42.00
1021;DHT22;499;42.648;23.270;2022-12-18T11:16:24;4.40;41.90
1021;DHT22;499;42.648;23.270;2022-12-18T11:18:52;4.60;42.40
1021;DHT22;499;42.648;23.270;2022-12-18T11:21:20;4.60;37.10
1021;DHT22;499;42.648;23.270;2022-12-18T11:23:50;4.50;38.10
1021;DHT22;499;42.648;23.270;2022-12-18T11:26:18;4.50;38.50
1021;DHT22;499;42.648;23.270;2022-12-18T11:28:47;4.50;37.30
1021;DHT22;499;42.648;23.270;2022-12-18T11:31:20;4.60;37.10
1021;DHT22;499;42.648;23.270;2022-12-18T11:33:54;4.70;37.20
1021;DHT22;499;42.648;23.270;2022-12-18T11:36:23;4.40;34.90
1021;DHT22;499;42.648;23.270;2022-12-18T11:38:54;4.60;35.20
1021;DHT22;499;42.648;23.270;2022-12-18T11:41:27;4.50;34.80
1021;DHT22;499;42.648;23.270;2022-12-18T11:44:13;4.30;32.40
1021;DHT22;499;42.648;23.270;2022-12-18T11:46:47;4.20;32.40
1021;DHT22;499;42.648;23.270;2022-12-18T11:49:20;4.10;31.90
1021;DHT22;499;42.648;23.270;2022-12-18T11:51:54;4.50;34.10
1021;DHT22;499;42.648;23.270;2022-12-18T11:54:23;4.20;33.10
1021;DHT22;499;42.648;23.270;2022-12-18T11:56:55;4.10;34.00
1021;DHT22;499;42.648;23.270;2022-12-18T11:59:31;4.30;33.90
1021;DHT22;499;42.648;23.270;2022-12-18T12:02:14;4.40;34.50
1021;DHT22;499;42.648;23.270;2022-12-18T12:04:57;4.40;34.20
1021;DHT22;499;42.648;23.270;2022-12-18T12:07:37;4.30;34.10
1021;DHT22;499;42.648;23.270;2022-12-18T12:10:19;4.30;35.10
1021;DHT22;499;42.648;23.270;2022-12-18T12:13:15;4.30;35.30
1021;DHT22;499;42.648;23.270;2022-12-18T12:15:56;4.20;35.80
1021;DHT22;499;42.648;23.270;2022-12-18T12:18:29;4.10;36.20
1021;DHT22;499;42.648;23.270;2022-12-18T12:21:06;4.30;35.50
1021;DHT22;499;42.648;23.270;2022-12-18T12:23:40;4.30;35.60
1021;DHT22;499;42.648;23.270;2022-12-18T12:26:14;4.20;34.90
1021;DHT22;499;42.648;23.270;2022-12-18T12:29:03;4.10;35.30
1021;DHT22;499;42.648;23.270;2022-12-18T12:31:45;4.00;35.10
1021;DHT22;499;42.648;23.270;2022-12-18T12:34:18;3.90;35.30
1021;DHT22;499;42.648;23.270;2022-12-18T12:36:57;4.10;35.50
1021;DHT22;499;42.648;23.270;2022-12-18T12:39:29;4.10;35.90
1021;DHT22;499;42.648;23.270;2022-12-18T12:41:58;4.10;36.60
1021;DHT22;499;42.648;23.270;2022-12-18T12:44:45;4.10;36.60
1021;DHT22;499;42.648;23.270;2022-12-18T12:47:17;4.20;36.70
1021;DHT22;499;42.648;23.270;2022-12-18T12:49:47;4.10;36.60
1021;DHT22;499;42.648;23.270;2022-12-18T12:52:27;4.10;36.50
1021;DHT22;499;42.648;23.270;2022-12-18T12:54:55;4.10;36.70
1021;DHT22;499;42.648;23.270;2022-12-18T12:57:30;4.00;36.60
1021;DHT22;499;42.648;23.270;2022-12-18T13:00:04;4.10;36.70
1021;DHT22;499;42.648;23.270;2022-12-18T13:02:35;4.10;36.90
1021;DHT22;499;42.648;23.270;2022-12-18T13:05:13;4.00;37.40
1021;DHT22;499;42.648;23.270;2022-12-18T13:07:49;3.80;38.30
1021;DHT22;499;42.648;23.270;2022-12-18T13:10:26;3.90;38.10
1021;DHT22;499;42.648;23.270;2022-12-18T13:13:00;4.00;38.00
1021;DHT22;499;42.648;23.270;2022-12-18T13:15:32;4.00;38.40
1021;DHT22;499;42.648;23.270;2022-12-18T13:18:13;4.00;38.40
1021;DHT22;499;42.648;23.270;2022-12-18T13:20:43;4.00;38.60
1021;DHT22;499;42.648;23.270;2022-12-18T13:23:30;4.20;39.00
1021;DHT22;499;42.648;23.270;2022-12-18T13:25:59;4.20;38.70
1021;DHT22;499;42.648;23.270;2022-12-18T13:28:56;4.10;38.70
1021;DHT22;499;42.648;23.270;2022-12-18T13:34:34;4.30;38.90
1021;DHT22;499;42.648;23.270;2022-12-18T13:43:21;4.10;37.80
1021;DHT22;499;42.648;23.270;2022-12-18T13:46:00;4.00;39.00
1021;DHT22;499;42.648;23.270;2022-12-18T13:48:30;4.00;39.20
1021;DHT22;499;42.648;23.270;2022-12-18T13:51:01;4.10;39.90
1021;DHT22;499;42.648;23.270;2022-12-18T13:53:34;4.10;39.10
1021;DHT22;499;42.648;23.270;2022-12-18T13:56:03;4.00;38.40
1021;DHT22;499;42.648;23.270;2022-12-18T13:58:30;4.10;39.40
1021;DHT22;499;42.648;23.270;2022-12-18T14:01:00;4.00;39.60
1021;DHT22;499;42.648;23.270;2022-12-18T14:03:30;4.10;40.20
1021;DHT22;499;42.648;23.270;2022-12-18T14:06:04;4.20;39.30
1021;DHT22;499;42.648;23.270;2022-12-18T14:08:36;4.30;39.30
1021;DHT22;499;42.648;23.270;2022-12-18T14:11:05;4.30;39.30
1021;DHT22;499;42.648;23.270;2022-12-18T14:13:35;4.30;39.00
1021;DHT22;499;42.648;23.270;2022-12-18T14:16:06;4.30;38.60
1021;DHT22;499;42.648;23.270;2022-12-18T14:18:42;4.30;38.70
1021;DHT22;499;42.648;23.270;2022-12-18T14:21:19;4.30;38.60
1021;DHT22;499;42.648;23.270;2022-12-18T14:23:47;4.20;38.90
1021;DHT22;499;42.648;23.270;2022-12-18T14:26:24;4.10;38.60
1021;DHT22;499;42.648;23.270;2022-12-18T14:28:54;4.10;38.60
1021;DHT22;499;42.648;23.270;2022-12-18T14:31:25;4.10;38.70
1021;DHT22;499;42.648;23.270;2022-12-18T14:33:53;4.10;36.60
1021;DHT22;499;42.648;23.270;2022-12-18T14:36:22;4.20;36.80
1021;DHT22;499;42.648;23.270;2022-12-18T14:38:50;4.10;35.90
1021;DHT22;499;42.648;23.270;2022-12-18T14:41:20;4.00;35.80
1021;DHT22;499;42.648;23.270;2022-12-18T14:43:48;4.00;36.60
1021;DHT22;499;42.648;23.270;2022-12-18T14:46:34;4.10;36.70
1021;DHT22;499;42.648;23.270;2022-12-18T14:49:03;4.10;36.60
1021;DHT22;499;42.648;23.270;2022-12-18T14:51:32;4.10;36.60
1021;DHT22;499;42.648;23.270;2022-12-18T14:54:01;4.20;37.30
1021;DHT22;499;42.648;23.270;2022-12-18T14:56:30;4.20;36.70
1021;DHT22;499;42.648;23.270;2022-12-18T14:58:59;4.10;36.70
1021;DHT22;499;42.648;23.270;2022-12-18T15:01:30;4.10;37.60
1021;DHT22;499;42.648;23.270;2022-12-18T15:04:01;4.20;37.90
1021;DHT22;499;42.648;23.270;2022-12-18T15:06:33;4.20;37.10
1021;DHT22;499;42.648;23.270;2022-12-18T15:09:04;4.20;36.80
1021;DHT22;499;42.648;23.270;2022-12-18T15:11:44;4.00;37.60
1021;DHT22;499;42.648;23.270;2022-12-18T15:14:31;4.00;38.60
1021;DHT22;499;42.648;23.270;2022-12-18T15:17:03;4.10;37.60
1021;DHT22;499;42.648;23.270;2022-12-18T15:19:38;4.10;37.60
1021;DHT22;499;42.648;23.270;2022-12-18T15:22:18;4.20;36.70
1021;DHT22;499;42.648;23.270;2022-12-18T15:24:47;4.10;36.60
1021;DHT22;499;42.648;23.270;2022-12-18T15:30:27;4.10;36.70
1021;DHT22;499;42.648;23.270;2022-12-18T15:33:23;4.10;36.60
1021;DHT22;499;42.648;23.270;2022-12-18T15:35:56;4.00;35.90
1021;DHT22;499;42.648;23.270;2022-12-18T15:38:24;4.00;35.50
1021;DHT22;499;42.648;23.270;2022-12-18T15:40:52;4.10;34.80
1021;DHT22;499;42.648;23.270;2022-12-18T15:43:20;4.00;34.30
1021;DHT22;499;42.648;23.270;2022-12-18T15:45:59;3.90;34.20
1021;DHT22;499;42.648;23.270;2022-12-18T15:48:28;4.00;35.00
1021;DHT22;499;42.648;23.270;2022-12-18T15:50:56;3.90;34.00
1021;DHT22;499;42.648;23.270;2022-12-18T15:53:25;3.80;33.30
1021;DHT22;499;42.648;23.270;2022-12-18T15:55:54;3.70;34.10
1021;DHT22;499;42.648;23.270;2022-12-18T15:58:39;3.70;34.20
1021;DHT22;499;42.648;23.270;2022-12-18T16:01:08;3.70;34.60
1021;DHT22;499;42.648;23.270;2022-12-18T16:03:37;3.60;34.90
1021;DHT22;499;42.648;23.270;2022-12-18T16:06:04;3.50;34.70
1021;DHT22;499;42.648;23.270;2022-12-18T16:08:31;3.50;33.90
1021;DHT22;499;42.648;23.270;2022-12-18T16:10:59;3.50;34.80
1021;DHT22;499;42.648;23.270;2022-12-18T16:13:27;3.50;33.50
1021;DHT22;499;42.648;23.270;2022-12-18T16:15:54;3.60;33.70
1021;DHT22;499;42.648;23.270;2022-12-18T16:18:21;3.50;32.90
1021;DHT22;499;42.648;23.270;2022-12-18T16:20:49;3.50;33.90
1021;DHT22;499;42.648;23.270;2022-12-18T16:23:17;3.50;32.80
1021;DHT22;499;42.648;23.270;2022-12-18T16:25:44;3.50;31.40
1021;DHT22;499;42.648;23.270;2022-12-18T16:28:11;3.50;32.00
1021;DHT22;499;42.648;23.270;2022-12-18T16:30:38;3.50;31.40
1021;DHT22;499;42.648;23.270;2022-12-18T16:33:05;3.60;31.50
1021;DHT22;499;42.648;23.270;2022-12-18T16:35:33;3.60;31.80
1021;DHT22;499;42.648;23.270;2022-12-18T16:38:04;3.70;31.60
1021;DHT22;499;42.648;23.270;2022-12-18T16:40:31;3.80;30.60
1021;DHT22;499;42.648;23.270;2022-12-18T16:42:58;3.70;30.80
1021;DHT22;499;42.648;23.270;2022-12-18T16:45:26;3.50;30.20
1021;DHT22;499;42.648;23.270;2022-12-18T16:47:58;3.50;31.40
1021;DHT22;499;42.648;23.270;2022-12-18T16:50:25;3.50;31.50
1021;DHT22;499;42.648;23.270;2022-12-18T16:52:52;3.60;30.50